sensor_id;sensor_type;location;lat;lon;timestamp;P1;durP1;ratioP1;P2;durP2;ratioP2
15528;SDS011;7866;52.280;9.500;2022-07-23T00:01:19;3.63;;;2.55;;
15528;SDS011;7866;52.280;9.500;2022-07-23T00:06:21;3.58;;;2.63;;
15528;SDS011;7866;52.280;9.500;2022-07-23T00:11:24;3.97;;;2.88;;
15528;SDS011;7866;52.280;9.500;2022-07-23T00:16:26;2.72;;;2.53;;
15528;SDS011;7866;52.280;9.500;2022-07-23T00:21:29;5.57;;;2.70;;
15528;SDS011;7866;52.280;9.500;2022-07-23T00:26:32;2.80;;;2.30;;
15528;SDS011;7866;52.280;9.500;2022-07-23T00:31:34;2.42;;;2.33;;
15528;SDS011;7866;52.280;9.500;2022-07-23T00:36:35;3.88;;;2.63;;
15528;SDS011;7866;52.280;9.500;2022-07-23T00:41:39;3.90;;;3.10;;
15528;SDS011;7866;52.280;9.500;2022-07-23T00:46:44;2.70;;;2.50;;
15528;SDS011;7866;52.280;9.500;2022-07-23T00:51:47;4.35;;;2.80;;
15528;SDS011;7866;52.280;9.500;2022-07-23T00:56:51;3.88;;;2.78;;
15528;SDS011;7866;52.280;9.500;2022-07-23T01:01:53;2.97;;;2.65;;
15528;SDS011;7866;52.280;9.500;2022-07-23T01:06:54;3.85;;;2.40;;
15528;SDS011;7866;52.280;9.500;2022-07-23T01:11:57;3.17;;;2.65;;
15528;SDS011;7866;52.280;9.500;2022-07-23T01:17:00;3.05;;;2.55;;
15528;SDS011;7866;52.280;9.500;2022-07-23T01:22:03;2.85;;;2.50;;
15528;SDS011;7866;52.280;9.500;2022-07-23T01:27:07;2.65;;;2.13;;
15528;SDS011;7866;52.280;9.500;2022-07-23T01:32:08;2.97;;;2.10;;
15528;SDS011;7866;52.280;9.500;2022-07-23T01:37:10;4.05;;;2.63;;
15528;SDS011;7866;52.280;9.500;2022-07-23T01:42:13;3.00;;;2.20;;
15528;SDS011;7866;52.280;9.500;2022-07-23T01:47:15;2.75;;;2.38;;
15528;SDS011;7866;52.280;9.500;2022-07-23T01:52:16;3.88;;;2.47;;
15528;SDS011;7866;52.280;9.500;2022-07-23T01:57:19;4.28;;;2.50;;
15528;SDS011;7866;52.280;9.500;2022-07-23T02:02:21;3.33;;;3.03;;
15528;SDS011;7866;52.280;9.500;2022-07-23T02:07:23;3.78;;;2.47;;
15528;SDS011;7866;52.280;9.500;2022-07-23T02:12:26;3.78;;;2.50;;
15528;SDS011;7866;52.280;9.500;2022-07-23T02:17:28;3.42;;;2.40;;
15528;SDS011;7866;52.280;9.500;2022-07-23T02:22:29;5.95;;;2.53;;
15528;SDS011;7866;52.280;9.500;2022-07-23T02:27:32;2.58;;;2.13;;
15528;SDS011;7866;52.280;9.500;2022-07-23T02:32:34;2.83;;;2.10;;
15528;SDS011;7866;52.280;9.500;2022-07-23T02:37:36;2.95;;;2.25;;
15528;SDS011;7866;52.280;9.500;2022-07-23T02:42:39;3.53;;;2.13;;
15528;SDS011;7866;52.280;9.500;2022-07-23T02:47:41;2.28;;;2.08;;
15528;SDS011;7866;52.280;9.500;2022-07-23T02:52:42;2.50;;;2.22;;
15528;SDS011;7866;52.280;9.500;2022-07-23T02:57:45;3.55;;;2.50;;
15528;SDS011;7866;52.280;9.500;2022-07-23T03:02:47;3.25;;;2.05;;
15528;SDS011;7866;52.280;9.500;2022-07-23T03:07:49;3.47;;;2.30;;
15528;SDS011;7866;52.280;9.500;2022-07-23T03:12:52;2.40;;;2.20;;
15528;SDS011;7866;52.280;9.500;2022-07-23T03:17:54;2.47;;;2.28;;
15528;SDS011;7866;52.280;9.500;2022-07-23T03:22:55;4.97;;;2.20;;
15528;SDS011;7866;52.280;9.500;2022-07-23T03:27:58;2.50;;;2.30;;
15528;SDS011;7866;52.280;9.500;2022-07-23T03:33:00;2.75;;;2.05;;
15528;SDS011;7866;52.280;9.500;2022-07-23T03:38:01;2.95;;;2.10;;
15528;SDS011;7866;52.280;9.500;2022-07-23T03:43:05;3.17;;;2.60;;
15528;SDS011;7866;52.280;9.500;2022-07-23T03:48:06;3.45;;;2.67;;
15528;SDS011;7866;52.280;9.500;2022-07-23T03:53:08;2.92;;;2.72;;
15528;SDS011;7866;52.280;9.500;2022-07-23T03:58:11;3.78;;;2.80;;
15528;SDS011;7866;52.280;9.500;2022-07-23T04:03:13;2.95;;;2.65;;
15528;SDS011;7866;52.280;9.500;2022-07-23T04:08:14;4.47;;;3.15;;
15528;SDS011;7866;52.280;9.500;2022-07-23T04:13:18;4.03;;;2.92;;
15528;SDS011;7866;52.280;9.500;2022-07-23T04:18:19;2.75;;;2.55;;
15528;SDS011;7866;52.280;9.500;2022-07-23T04:23:22;2.47;;;2.30;;
15528;SDS011;7866;52.280;9.500;2022-07-23T04:28:25;2.80;;;2.58;;
15528;SDS011;7866;52.280;9.500;2022-07-23T04:33:26;3.13;;;2.67;;
15528;SDS011;7866;52.280;9.500;2022-07-23T04:38:28;2.30;;;2.20;;
15528;SDS011;7866;52.280;9.500;2022-07-23T04:43:31;3.78;;;2.28;;
15528;SDS011;7866;52.280;9.500;2022-07-23T04:48:33;3.28;;;2.80;;
15528;SDS011;7866;52.280;9.500;2022-07-23T04:53:36;3.00;;;2.80;;
15528;SDS011;7866;52.280;9.500;2022-07-23T04:58:39;3.72;;;3.05;;
15528;SDS011;7866;52.280;9.500;2022-07-23T05:03:41;3.10;;;2.80;;
15528;SDS011;7866;52.280;9.500;2022-07-23T05:08:42;3.00;;;2.80;;
15528;SDS011;7866;52.280;9.500;2022-07-23T05:13:46;3.70;;;2.90;;
15528;SDS011;7866;52.280;9.500;2022-07-23T05:18:47;3.22;;;2.97;;
15528;SDS011;7866;52.280;9.500;2022-07-23T05:23:49;3.90;;;3.00;;
15528;SDS011;7866;52.280;9.500;2022-07-23T05:28:52;3.42;;;3.10;;
15528;SDS011;7866;52.280;9.500;2022-07-23T05:33:54;4.03;;;2.92;;
15528;SDS011;7866;52.280;9.500;2022-07-23T05:38:55;3.00;;;2.63;;
15528;SDS011;7866;52.280;9.500;2022-07-23T05:43:58;2.60;;;2.40;;
15528;SDS011;7866;52.280;9.500;2022-07-23T05:49:00;2.60;;;2.40;;
15528;SDS011;7866;52.280;9.500;2022-07-23T05:54:02;2.35;;;2.13;;
15528;SDS011;7866;52.280;9.500;2022-07-23T05:59:05;2.55;;;2.28;;
15528;SDS011;7866;52.280;9.500;2022-07-23T06:04:07;2.85;;;2.30;;
15528;SDS011;7866;52.280;9.500;2022-07-23T06:09:09;3.40;;;2.33;;
15528;SDS011;7866;52.280;9.500;2022-07-23T06:14:12;3.53;;;2.38;;
15528;SDS011;7866;52.280;9.500;2022-07-23T06:19:14;4.07;;;2.60;;
15528;SDS011;7866;52.280;9.500;2022-07-23T06:24:15;4.07;;;2.30;;
15528;SDS011;7866;52.280;9.500;2022-07-23T06:29:18;3.10;;;2.38;;
15528;SDS011;7866;52.280;9.500;2022-07-23T06:34:20;3.13;;;2.40;;
15528;SDS011;7866;52.280;9.500;2022-07-23T06:39:22;4.28;;;2.28;;
15528;SDS011;7866;52.280;9.500;2022-07-23T06:44:25;3.05;;;2.30;;
15528;SDS011;7866;52.280;9.500;2022-07-23T06:49:27;2.53;;;2.30;;
15528;SDS011;7866;52.280;9.500;2022-07-23T06:54:28;2.53;;;2.33;;
15528;SDS011;7866;52.280;9.500;2022-07-23T06:59:31;6.88;;;2.60;;
15528;SDS011;7866;52.280;9.500;2022-07-23T07:04:36;3.28;;;2.70;;
15528;SDS011;7866;52.280;9.500;2022-07-23T07:09:38;5.13;;;2.28;;
15528;SDS011;7866;52.280;9.500;2022-07-23T07:14:41;2.95;;;2.50;;
15528;SDS011;7866;52.280;9.500;2022-07-23T07:19:42;3.08;;;2.70;;
15528;SDS011;7866;52.280;9.500;2022-07-23T07:24:44;4.90;;;4.00;;
15528;SDS011;7866;52.280;9.500;2022-07-23T07:29:47;4.22;;;3.20;;
15528;SDS011;7866;52.280;9.500;2022-07-23T07:34:49;5.13;;;3.15;;
15528;SDS011;7866;52.280;9.500;2022-07-23T07:39:50;6.25;;;3.45;;
15528;SDS011;7866;52.280;9.500;2022-07-23T07:44:53;4.05;;;3.03;;
15528;SDS011;7866;52.280;9.500;2022-07-23T07:49:55;5.70;;;2.72;;
15528;SDS011;7866;52.280;9.500;2022-07-23T07:54:57;5.72;;;2.60;;
15528;SDS011;7866;52.280;9.500;2022-07-23T08:00:00;4.47;;;2.85;;
15528;SDS011;7866;52.280;9.500;2022-07-23T08:05:02;4.57;;;2.70;;
15528;SDS011;7866;52.280;9.500;2022-07-23T08:10:04;3.20;;;2.00;;
15528;SDS011;7866;52.280;9.500;2022-07-23T08:15:08;2.88;;;2.50;;
15528;SDS011;7866;52.280;9.500;2022-07-23T08:20:11;3.10;;;2.28;;
15528;SDS011;7866;52.280;9.500;2022-07-23T08:25:14;3.15;;;2.50;;
15528;SDS011;7866;52.280;9.500;2022-07-23T08:30:18;3.85;;;2.30;;
15528;SDS011;7866;52.280;9.500;2022-07-23T08:35:24;3.28;;;2.45;;
15528;SDS011;7866;52.280;9.500;2022-07-23T08:40:28;3.67;;;2.30;;
15528;SDS011;7866;52.280;9.500;2022-07-23T08:45:35;3.33;;;2.42;;
15528;SDS011;7866;52.280;9.500;2022-07-23T08:50:40;2.53;;;2.22;;
15528;SDS011;7866;52.280;9.500;2022-07-23T08:55:44;2.10;;;1.90;;
15528;SDS011;7866;52.280;9.500;2022-07-23T09:00:47;2.97;;;2.28;;
15528;SDS011;7866;52.280;9.500;2022-07-23T09:05:50;3.38;;;2.20;;
15528;SDS011;7866;52.280;9.500;2022-07-23T09:10:53;3.20;;;2.38;;
15528;SDS011;7866;52.280;9.500;2022-07-23T09:15:58;2.05;;;1.67;;
15528;SDS011;7866;52.280;9.500;2022-07-23T09:21:07;2.13;;;1.90;;
15528;SDS011;7866;52.280;9.500;2022-07-23T09:26:21;2.92;;;2.17;;
15528;SDS011;7866;52.280;9.500;2022-07-23T09:31:30;2.17;;;1.90;;
15528;SDS011;7866;52.280;9.500;2022-07-23T09:36:34;2.67;;;2.13;;
15528;SDS011;7866;52.280;9.500;2022-07-23T09:41:37;3.20;;;2.10;;
15528;SDS011;7866;52.280;9.500;2022-07-23T09:46:42;2.75;;;1.67;;
15528;SDS011;7866;52.280;9.500;2022-07-23T09:51:45;3.05;;;1.90;;
15528;SDS011;7866;52.280;9.500;2022-07-23T09:56:48;3.03;;;1.65;;
15528;SDS011;7866;52.280;9.500;2022-07-23T10:01:53;1.73;;;1.52;;
15528;SDS011;7866;52.280;9.500;2022-07-23T10:06:57;2.42;;;1.73;;
15528;SDS011;7866;52.280;9.500;2022-07-23T10:12:00;1.77;;;1.67;;
15528;SDS011;7866;52.280;9.500;2022-07-23T10:17:24;2.10;;;1.40;;
15528;SDS011;7866;52.280;9.500;2022-07-23T10:22:26;2.47;;;1.30;;
15528;SDS011;7866;52.280;9.500;2022-07-23T10:33:15;30.92;;;5.18;;
15528;SDS011;7866;52.280;9.500;2022-07-23T10:38:25;4.40;;;1.85;;
15528;SDS011;7866;52.280;9.500;2022-07-23T10:43:31;4.50;;;1.40;;
15528;SDS011;7866;52.280;9.500;2022-07-23T10:48:34;3.88;;;1.23;;
15528;SDS011;7866;52.280;9.500;2022-07-23T10:53:55;1.98;;;0.93;;
15528;SDS011;7866;52.280;9.500;2022-07-23T10:58:59;3.00;;;1.50;;
15528;SDS011;7866;52.280;9.500;2022-07-23T11:04:08;13.73;;;8.65;;
15528;SDS011;7866;52.280;9.500;2022-07-23T11:09:23;3.22;;;1.80;;
15528;SDS011;7866;52.280;9.500;2022-07-23T11:20:20;1.70;;;1.27;;
15528;SDS011;7866;52.280;9.500;2022-07-23T11:25:31;1.23;;;1.13;;
15528;SDS011;7866;52.280;9.500;2022-07-23T11:30:38;1.67;;;1.20;;
15528;SDS011;7866;52.280;9.500;2022-07-23T11:35:44;1.10;;;0.80;;
15528;SDS011;7866;52.280;9.500;2022-07-23T11:40:47;3.92;;;0.98;;
15528;SDS011;7866;52.280;9.500;2022-07-23T11:45:51;2.15;;;1.40;;
15528;SDS011;7866;52.280;9.500;2022-07-23T11:50:56;2.58;;;1.20;;
15528;SDS011;7866;52.280;9.500;2022-07-23T11:56:03;2.25;;;0.93;;
15528;SDS011;7866;52.280;9.500;2022-07-23T12:01:06;2.30;;;1.00;;
15528;SDS011;7866;52.280;9.500;2022-07-23T12:06:09;1.20;;;1.10;;
15528;SDS011;7866;52.280;9.500;2022-07-23T12:11:11;1.33;;;1.05;;
15528;SDS011;7866;52.280;9.500;2022-07-23T12:16:13;2.67;;;1.25;;
15528;SDS011;7866;52.280;9.500;2022-07-23T12:21:16;2.22;;;1.02;;
15528;SDS011;7866;52.280;9.500;2022-07-23T12:26:18;1.23;;;0.88;;
15528;SDS011;7866;52.280;9.500;2022-07-23T12:31:25;1.42;;;1.00;;
15528;SDS011;7866;52.280;9.500;2022-07-23T12:36:37;1.10;;;0.98;;
15528;SDS011;7866;52.280;9.500;2022-07-23T12:47:00;1.40;;;0.85;;
15528;SDS011;7866;52.280;9.500;2022-07-23T12:52:15;1.70;;;0.73;;
15528;SDS011;7866;52.280;9.500;2022-07-23T12:57:17;1.02;;;0.90;;
15528;SDS011;7866;52.280;9.500;2022-07-23T13:02:19;1.95;;;0.90;;
15528;SDS011;7866;52.280;9.500;2022-07-23T13:07:22;2.45;;;1.00;;
15528;SDS011;7866;52.280;9.500;2022-07-23T13:12:24;1.77;;;1.00;;
15528;SDS011;7866;52.280;9.500;2022-07-23T13:17:25;1.45;;;1.10;;
15528;SDS011;7866;52.280;9.500;2022-07-23T13:22:28;1.25;;;0.80;;
15528;SDS011;7866;52.280;9.500;2022-07-23T13:27:30;2.03;;;0.65;;
15528;SDS011;7866;52.280;9.500;2022-07-23T13:32:32;1.00;;;0.90;;
15528;SDS011;7866;52.280;9.500;2022-07-23T13:37:35;0.82;;;0.82;;
15528;SDS011;7866;52.280;9.500;2022-07-23T13:42:37;0.98;;;0.70;;
15528;SDS011;7866;52.280;9.500;2022-07-23T13:47:38;1.00;;;0.68;;
15528;SDS011;7866;52.280;9.500;2022-07-23T13:52:42;0.80;;;0.80;;
15528;SDS011;7866;52.280;9.500;2022-07-23T13:57:44;2.33;;;0.70;;
15528;SDS011;7866;52.280;9.500;2022-07-23T14:02:46;1.88;;;0.70;;
15528;SDS011;7866;52.280;9.500;2022-07-23T14:07:49;0.90;;;0.80;;
15528;SDS011;7866;52.280;9.500;2022-07-23T14:12:51;2.42;;;0.88;;
15528;SDS011;7866;52.280;9.500;2022-07-23T14:17:56;0.65;;;0.65;;
15528;SDS011;7866;52.280;9.500;2022-07-23T14:22:59;1.33;;;1.02;;
15528;SDS011;7866;52.280;9.500;2022-07-23T14:28:01;1.00;;;0.90;;
15528;SDS011;7866;52.280;9.500;2022-07-23T14:33:03;0.88;;;0.77;;
15528;SDS011;7866;52.280;9.500;2022-07-23T14:38:06;1.00;;;0.80;;
15528;SDS011;7866;52.280;9.500;2022-07-23T14:43:08;1.15;;;0.80;;
15528;SDS011;7866;52.280;9.500;2022-07-23T14:48:10;0.77;;;0.77;;
15528;SDS011;7866;52.280;9.500;2022-07-23T14:53:13;1.55;;;0.90;;
15528;SDS011;7866;52.280;9.500;2022-07-23T14:58:15;0.70;;;0.70;;
15528;SDS011;7866;52.280;9.500;2022-07-23T15:03:17;0.65;;;0.65;;
15528;SDS011;7866;52.280;9.500;2022-07-23T15:08:20;1.08;;;0.82;;
15528;SDS011;7866;52.280;9.500;2022-07-23T15:13:22;1.45;;;0.80;;
15528;SDS011;7866;52.280;9.500;2022-07-23T15:18:24;2.20;;;0.90;;
15528;SDS011;7866;52.280;9.500;2022-07-23T15:23:27;1.92;;;0.80;;
15528;SDS011;7866;52.280;9.500;2022-07-23T15:28:29;1.42;;;0.77;;
15528;SDS011;7866;52.280;9.500;2022-07-23T15:33:30;1.58;;;0.47;;
15528;SDS011;7866;52.280;9.500;2022-07-23T15:38:34;0.75;;;0.73;;
15528;SDS011;7866;52.280;9.500;2022-07-23T15:43:35;0.60;;;0.60;;
15528;SDS011;7866;52.280;9.500;2022-07-23T15:48:37;2.15;;;0.70;;
15528;SDS011;7866;52.280;9.500;2022-07-23T15:53:40;1.92;;;1.40;;
15528;SDS011;7866;52.280;9.500;2022-07-23T15:58:42;0.90;;;0.90;;
15528;SDS011;7866;52.280;9.500;2022-07-23T16:03:44;0.50;;;0.50;;
15528;SDS011;7866;52.280;9.500;2022-07-23T16:08:48;1.00;;;0.70;;
15528;SDS011;7866;52.280;9.500;2022-07-23T16:13:50;0.63;;;0.45;;
15528;SDS011;7866;52.280;9.500;2022-07-23T16:18:51;0.47;;;0.47;;
15528;SDS011;7866;52.280;9.500;2022-07-23T16:23:54;1.52;;;0.75;;
15528;SDS011;7866;52.280;9.500;2022-07-23T16:28:56;1.00;;;0.80;;
15528;SDS011;7866;52.280;9.500;2022-07-23T16:33:58;0.77;;;0.70;;
15528;SDS011;7866;52.280;9.500;2022-07-23T16:39:01;0.95;;;0.70;;
15528;SDS011;7866;52.280;9.500;2022-07-23T16:44:04;1.13;;;0.75;;
15528;SDS011;7866;52.280;9.500;2022-07-23T16:49:05;0.70;;;0.60;;
15528;SDS011;7866;52.280;9.500;2022-07-23T16:54:08;0.95;;;0.57;;
15528;SDS011;7866;52.280;9.500;2022-07-23T16:59:10;0.50;;;0.50;;
15528;SDS011;7866;52.280;9.500;2022-07-23T17:04:12;0.68;;;0.68;;
15528;SDS011;7866;52.280;9.500;2022-07-23T17:09:15;0.70;;;0.60;;
15528;SDS011;7866;52.280;9.500;2022-07-23T17:14:17;1.63;;;0.60;;
15528;SDS011;7866;52.280;9.500;2022-07-23T17:19:19;0.70;;;0.70;;
15528;SDS011;7866;52.280;9.500;2022-07-23T17:24:22;1.00;;;1.00;;
15528;SDS011;7866;52.280;9.500;2022-07-23T17:29:24;1.45;;;0.70;;
15528;SDS011;7866;52.280;9.500;2022-07-23T17:34:27;1.30;;;1.13;;
15528;SDS011;7866;52.280;9.500;2022-07-23T17:39:30;0.80;;;0.80;;
15528;SDS011;7866;52.280;9.500;2022-07-23T17:44:32;1.20;;;0.77;;
15528;SDS011;7866;52.280;9.500;2022-07-23T17:49:33;0.90;;;0.90;;
15528;SDS011;7866;52.280;9.500;2022-07-23T17:54:36;2.85;;;0.77;;
15528;SDS011;7866;52.280;9.500;2022-07-23T17:59:38;0.93;;;0.70;;
15528;SDS011;7866;52.280;9.500;2022-07-23T18:04:40;0.80;;;0.80;;
15528;SDS011;7866;52.280;9.500;2022-07-23T18:09:43;1.02;;;0.75;;
15528;SDS011;7866;52.280;9.500;2022-07-23T18:14:45;0.60;;;0.57;;
15528;SDS011;7866;52.280;9.500;2022-07-23T18:19:48;0.70;;;0.70;;
15528;SDS011;7866;52.280;9.500;2022-07-23T18:24:52;1.65;;;0.80;;
15528;SDS011;7866;52.280;9.500;2022-07-23T18:29:53;0.82;;;0.77;;
15528;SDS011;7866;52.280;9.500;2022-07-23T18:34:55;0.75;;;0.75;;
15528;SDS011;7866;52.280;9.500;2022-07-23T18:39:58;0.70;;;0.70;;
15528;SDS011;7866;52.280;9.500;2022-07-23T18:45:01;0.75;;;0.70;;
15528;SDS011;7866;52.280;9.500;2022-07-23T18:50:04;1.33;;;0.73;;
15528;SDS011;7866;52.280;9.500;2022-07-23T18:55:09;1.52;;;0.68;;
15528;SDS011;7866;52.280;9.500;2022-07-23T19:00:11;1.23;;;0.80;;
15528;SDS011;7866;52.280;9.500;2022-07-23T19:05:13;1.10;;;0.85;;
15528;SDS011;7866;52.280;9.500;2022-07-23T19:10:16;2.50;;;0.65;;
15528;SDS011;7866;52.280;9.500;2022-07-23T19:15:18;2.05;;;0.70;;
15528;SDS011;7866;52.280;9.500;2022-07-23T19:20:20;0.93;;;0.57;;
15528;SDS011;7866;52.280;9.500;2022-07-23T19:25:23;0.88;;;0.82;;
15528;SDS011;7866;52.280;9.500;2022-07-23T19:30:25;0.57;;;0.57;;
15528;SDS011;7866;52.280;9.500;2022-07-23T19:35:27;1.05;;;0.57;;
15528;SDS011;7866;52.280;9.500;2022-07-23T19:40:30;0.65;;;0.60;;
15528;SDS011;7866;52.280;9.500;2022-07-23T19:45:31;2.22;;;1.02;;
15528;SDS011;7866;52.280;9.500;2022-07-23T19:50:33;0.50;;;0.50;;
15528;SDS011;7866;52.280;9.500;2022-07-23T19:55:36;1.67;;;0.63;;
15528;SDS011;7866;52.280;9.500;2022-07-23T20:00:38;1.17;;;0.50;;
15528;SDS011;7866;52.280;9.500;2022-07-23T20:05:40;0.77;;;0.70;;
15528;SDS011;7866;52.280;9.500;2022-07-23T20:10:43;0.60;;;0.60;;
15528;SDS011;7866;52.280;9.500;2022-07-23T20:15:44;0.77;;;0.57;;
15528;SDS011;7866;52.280;9.500;2022-07-23T20:20:47;0.63;;;0.60;;
15528;SDS011;7866;52.280;9.500;2022-07-23T20:25:50;3.72;;;0.80;;
15528;SDS011;7866;52.280;9.500;2022-07-23T20:30:52;0.52;;;0.52;;
15528;SDS011;7866;52.280;9.500;2022-07-23T20:35:54;0.50;;;0.50;;
15528;SDS011;7866;52.280;9.500;2022-07-23T20:40:58;0.90;;;0.60;;
15528;SDS011;7866;52.280;9.500;2022-07-23T20:46:00;1.75;;;0.70;;
15528;SDS011;7866;52.280;9.500;2022-07-23T20:51:02;0.65;;;0.63;;
15528;SDS011;7866;52.280;9.500;2022-07-23T20:56:05;0.90;;;0.75;;
15528;SDS011;7866;52.280;9.500;2022-07-23T21:01:08;0.55;;;0.55;;
15528;SDS011;7866;52.280;9.500;2022-07-23T21:06:09;0.52;;;0.52;;
15528;SDS011;7866;52.280;9.500;2022-07-23T21:11:12;1.05;;;0.60;;
15528;SDS011;7866;52.280;9.500;2022-07-23T21:16:15;1.13;;;0.80;;
15528;SDS011;7866;52.280;9.500;2022-07-23T21:21:17;0.95;;;0.70;;
15528;SDS011;7866;52.280;9.500;2022-07-23T21:26:20;1.80;;;0.63;;
15528;SDS011;7866;52.280;9.500;2022-07-23T21:31:22;1.52;;;0.98;;
15528;SDS011;7866;52.280;9.500;2022-07-23T21:36:24;1.17;;;0.90;;
15528;SDS011;7866;52.280;9.500;2022-07-23T21:41:27;0.85;;;0.85;;
15528;SDS011;7866;52.280;9.500;2022-07-23T21:46:31;0.98;;;0.88;;
15528;SDS011;7866;52.280;9.500;2022-07-23T21:51:34;0.82;;;0.82;;
15528;SDS011;7866;52.280;9.500;2022-07-23T21:56:37;0.77;;;0.77;;
15528;SDS011;7866;52.280;9.500;2022-07-23T22:01:39;0.88;;;0.88;;
15528;SDS011;7866;52.280;9.500;2022-07-23T22:06:40;0.77;;;0.77;;
15528;SDS011;7866;52.280;9.500;2022-07-23T22:11:44;0.95;;;0.90;;
15528;SDS011;7866;52.280;9.500;2022-07-23T22:16:45;2.05;;;0.93;;
15528;SDS011;7866;52.280;9.500;2022-07-23T22:21:47;1.30;;;0.90;;
15528;SDS011;7866;52.280;9.500;2022-07-23T22:26:50;1.98;;;0.77;;
15528;SDS011;7866;52.280;9.500;2022-07-23T22:31:52;0.80;;;0.77;;
15528;SDS011;7866;52.280;9.500;2022-07-23T22:36:53;0.88;;;0.85;;
15528;SDS011;7866;52.280;9.500;2022-07-23T22:41:56;1.73;;;1.10;;
15528;SDS011;7866;52.280;9.500;2022-07-23T22:46:58;0.85;;;0.85;;
15528;SDS011;7866;52.280;9.500;2022-07-23T22:52:00;0.90;;;0.90;;
15528;SDS011;7866;52.280;9.500;2022-07-23T22:57:03;1.75;;;1.00;;
15528;SDS011;7866;52.280;9.500;2022-07-23T23:02:05;1.35;;;1.08;;
15528;SDS011;7866;52.280;9.500;2022-07-23T23:07:06;0.85;;;0.85;;
15528;SDS011;7866;52.280;9.500;2022-07-23T23:12:10;2.58;;;1.20;;
15528;SDS011;7866;52.280;9.500;2022-07-23T23:17:11;1.70;;;1.02;;
15528;SDS011;7866;52.280;9.500;2022-07-23T23:22:13;3.22;;;1.30;;
15528;SDS011;7866;52.280;9.500;2022-07-23T23:27:16;1.20;;;1.05;;
15528;SDS011;7866;52.280;9.500;2022-07-23T23:32:18;1.00;;;1.00;;
15528;SDS011;7866;52.280;9.500;2022-07-23T23:37:19;1.13;;;1.13;;
15528;SDS011;7866;52.280;9.500;2022-07-23T23:42:22;1.30;;;1.20;;
15528;SDS011;7866;52.280;9.500;2022-07-23T23:47:24;1.65;;;1.20;;
15528;SDS011;7866;52.280;9.500;2022-07-23T23:52:26;1.13;;;1.10;;
15528;SDS011;7866;52.280;9.500;2022-07-23T23:57:29;1.23;;;1.10;;
